Página principal
METAR-TAF:

METAR-TAF

Aeroportos :

Madrid-Getafe, Espanha

latitude: 40-18N, longitude: 003-43W, altura: 620 m

Observação actual do tempo

O boletim foi feito há 50 minutos, às 05:00 UTC
Vento 1 kt de sudeste
Temperatura 12°C
Humidade 94%
Pressão 1014 hPa
Visibilidade 10 km ou mais
Poucas nuvensa uma altura de 3000 ft

METAR: LEGT 260500Z 13001KT 9999 FEW030 12/11 Q1014

Hora: 07:50 (05:50 UTC)


TAF: em falta

Observações e previsões do tempo de mais de 4000 aeroportos (mensagens METAR e TAF).

As estações disponíveis são os pontos amarelos e vermelhos sobre o mapa.

Mova o rato sobre o mapa para ver o nome da estação.

Depois clique no ponto para visualizar as observações e previsões meteorológicas.

Para alterar o mapa : clique nos botões verdes com uma cruz preta para aumentar o zoom; no botão verde com uma pitada de zoom; ou nas setas verdes para mapas adjacentes.


METAR-TAF: